Time;durP1;ratioP1;P1;durP2;ratioP2;P2;SDS_P1;SDS_P2;PMS_P1;PMS_P2;Temp;Humidity;BMP_temperature;BMP_pressure;BME280_temperature;BME280_humidity;BME280_pressure;Samples;Min_cycle;Max_cycle;Signal;HPM_P1;HPM_P2
2023/11/19 00:01:41;;;;;;;11.40;6.60;;;;;;;8.07;61.16;101111.91;106389;1253;72686;-80
2023/11/19 00:04:20;;;;;;;14.10;7.60;;;;;;;8.06;61.15;101114.60;106355;1254;60383;-79
2023/11/19 00:07:03;;;;;;;14.60;7.20;;;;;;;8.00;60.96;101111.30;106583;1253;60444;-82
2023/11/19 00:09:43;;;;;;;9.40;6.00;;;;;;;7.99;61.17;101109.45;106380;1254;72639;-80
2023/11/19 00:12:24;;;;;;;10.00;6.00;;;;;;;7.94;60.94;101109.45;106420;1254;68535;-82
2023/11/19 00:15:04;;;;;;;9.80;6.70;;;;;;;7.97;60.89;101101.73;106291;1254;71223;-82
2023/11/19 00:17:45;;;;;;;12.70;6.90;;;;;;;8.03;60.11;101100.30;106363;1256;62040;-80
2023/11/19 00:20:25;;;;;;;10.50;6.70;;;;;;;7.98;60.30;101096.45;106414;1253;60469;-80
2023/11/19 00:23:05;;;;;;;14.90;7.90;;;;;;;7.88;60.83;101090.95;106381;1254;72765;-80
2023/11/19 00:25:45;;;;;;;11.50;6.90;;;;;;;7.95;60.84;101088.02;106555;1254;68251;-80
2023/11/19 00:28:25;;;;;;;11.60;7.30;;;;;;;7.99;60.02;101086.13;106368;1256;72682;-80
2023/11/19 00:31:05;;;;;;;10.60;6.80;;;;;;;8.06;59.73;101087.55;106412;1256;60642;-83
2023/11/19 00:33:45;;;;;;;12.90;7.60;;;;;;;8.04;59.65;101082.83;106306;1256;59977;-82
2023/11/19 00:36:29;;;;;;;13.20;8.10;;;;;;;8.16;58.80;101074.77;106321;1258;73938;-82
2023/11/19 00:39:09;;;;;;;12.80;7.30;;;;;;;8.16;58.72;101075.31;106365;1254;68904;-82
2023/11/19 00:41:48;;;;;;;11.10;7.10;;;;;;;8.24;58.38;101070.90;106439;1254;72662;-82
2023/11/19 00:44:28;;;;;;;10.30;7.00;;;;;;;8.27;57.82;101073.96;106337;1254;60629;-80
2023/11/19 00:47:08;;;;;;;9.30;6.20;;;;;;;8.20;57.06;101070.52;106300;1253;60565;-82
2023/11/19 00:49:48;;;;;;;11.50;6.40;;;;;;;8.28;57.03;101066.52;106324;1259;72677;-82
2023/11/19 00:52:28;;;;;;;10.90;6.70;;;;;;;8.26;56.74;101068.00;106649;1254;67416;-82
2023/11/19 00:55:08;;;;;;;10.70;6.90;;;;;;;8.11;56.61;101063.59;106324;1254;72723;-81
2023/11/19 00:57:48;;;;;;;11.80;6.50;;;;;;;8.12;56.39;101065.16;106387;1254;61050;-79
2023/11/19 01:00:32;;;;;;;11.50;6.70;;;;;;;8.18;56.63;101064.83;106500;1254;60647;-80
2023/11/19 01:03:12;;;;;;;11.10;6.40;;;;;;;8.18;56.85;101056.39;106444;1252;72587;-82
2023/11/19 01:05:52;;;;;;;12.50;7.20;;;;;;;8.09;57.12;101053.05;106286;1254;68353;-80
2023/11/19 01:08:35;;;;;;;11.30;5.90;;;;;;;8.01;57.20;101037.61;106314;1257;70320;-82
2023/11/19 01:11:15;;;;;;;11.90;6.70;;;;;;;7.96;57.43;101035.41;106347;1257;60537;-80
2023/11/19 01:13:55;;;;;;;9.00;5.40;;;;;;;7.85;57.25;101033.65;106311;1259;60431;-82
2023/11/19 01:16:35;;;;;;;11.40;7.00;;;;;;;7.87;57.46;101030.52;106420;1259;73860;-80
2023/11/19 01:19:15;;;;;;;11.50;5.80;;;;;;;7.81;56.84;101035.42;106394;1254;68454;-82
2023/11/19 01:21:57;;;;;;;10.30;5.90;;;;;;;7.79;57.35;101030.50;106299;1252;71489;-82
2023/11/19 01:24:38;;;;;;;12.20;5.60;;;;;;;8.00;56.64;101030.85;106516;1254;60489;-83
2023/11/19 01:27:17;;;;;;;10.10;5.50;;;;;;;8.04;56.10;101029.81;106240;1254;60354;-83
2023/11/19 01:29:57;;;;;;;10.10;5.70;;;;;;;8.06;55.97;101032.09;106334;1256;71820;-81
2023/11/19 01:32:40;;;;;;;9.20;6.00;;;;;;;7.91;56.44;101037.46;106261;1254;68829;-81
2023/11/19 01:35:20;;;;;;;9.40;4.90;;;;;;;7.80;56.59;101037.16;106271;1257;71376;-83
2023/11/19 01:37:59;;;;;;;8.50;5.30;;;;;;;7.89;56.08;101045.14;106383;1252;60511;-81
2023/11/19 01:40:39;;;;;;;11.40;6.00;;;;;;;7.94;55.53;101049.42;106360;1254;60385;-81
2023/11/19 05:44:16;;;;;;;5.50;2.60;;;;;;;7.24;53.54;100976.69;106395;1252;72663;-81
2023/11/19 05:46:56;;;;;;;9.30;4.30;;;;;;;7.23;53.70;100983.17;106497;1254;68677;-81
2023/11/19 05:49:30;;;;;;;8.60;4.80;;;;;;;7.25;53.50;100983.88;106450;1255;71429;-82
2023/11/19 05:52:09;;;;;;;7.70;4.50;;;;;;;7.24;53.21;100989.23;106440;1256;60373;-81
2023/11/19 05:54:43;;;;;;;6.40;3.70;;;;;;;7.27;53.33;100992.73;106296;1256;60420;-82
2023/11/19 05:57:23;;;;;;;5.20;4.00;;;;;;;7.26;53.16;100995.80;106328;1256;73844;-83
2023/11/19 05:59:51;;;;;;;8.00;4.70;;;;;;;7.10;53.28;100998.13;106613;1258;67158;-82
2023/11/19 06:02:27;;;;;;;8.00;4.90;;;;;;;7.11;53.65;101004.92;106335;1260;73129;-81
2023/11/19 06:05:01;;;;;;;6.70;4.40;;;;;;;7.08;53.80;101005.42;106328;1254;60899;-81
2023/11/19 06:07:36;;;;;;;7.10;3.90;;;;;;;7.22;53.54;101009.70;106411;1254;60421;-82
2023/11/19 06:10:06;;;;;;;6.30;3.70;;;;;;;7.25;53.40;101007.63;106508;1253;74231;-84
2023/11/19 06:12:41;;;;;;;7.10;4.40;;;;;;;7.33;53.10;101004.98;106403;1254;68427;-81
2023/11/19 06:15:15;;;;;;;7.50;4.50;;;;;;;7.37;53.00;100992.95;106428;1256;72673;-83
2023/11/19 06:17:48;;;;;;;7.80;4.70;;;;;;;7.36;52.97;100988.60;106355;1257;60489;-83
2023/11/19 06:20:17;;;;;;;7.00;4.50;;;;;;;7.47;52.56;100982.65;106448;1254;60584;-81
2023/11/19 06:22:51;;;;;;;5.10;3.50;;;;;;;7.57;52.21;100980.23;106479;1254;71663;-83
2023/11/19 06:25:31;;;;;;;7.80;4.30;;;;;;;7.35;52.13;100978.25;106287;1258;67087;-83
2023/11/19 06:27:58;;;;;;;6.90;4.30;;;;;;;7.31;52.20;100973.44;106479;1259;73006;-83
2023/11/19 06:30:32;;;;;;;7.70;3.80;;;;;;;7.26;52.48;100971.45;106393;1255;60517;-82
2023/11/19 06:33:07;;;;;;;7.50;3.80;;;;;;;7.20;52.64;100969.11;106322;1258;60581;-81
2023/11/19 06:35:41;;;;;;;6.00;3.60;;;;;;;7.21;52.27;100968.92;106361;1258;73883;-81
2023/11/19 06:38:08;;;;;;;9.10;4.00;;;;;;;7.17;51.83;100963.45;106352;1257;68840;-83
2023/11/19 06:40:42;;;;;;;7.50;4.20;;;;;;;6.98;52.04;100959.52;106324;1254;72687;-83
2023/11/19 06:43:16;;;;;;;8.00;3.80;;;;;;;6.87;53.10;100960.84;106234;1254;60498;-83
2023/11/19 06:45:50;;;;;;;5.60;3.60;;;;;;;6.94;53.15;100958.20;106387;1257;60597;-81
2023/11/19 06:48:17;;;;;;;6.30;4.00;;;;;;;6.99;52.82;100960.14;106464;1254;72588;-82
2023/11/19 06:50:51;;;;;;;7.90;3.90;;;;;;;7.09;52.71;100965.26;106407;1256;67822;-81
2023/11/19 06:53:31;;;;;;;5.30;3.30;;;;;;;7.22;52.62;100965.41;106445;1255;72652;-82
2023/11/19 06:56:06;;;;;;;9.40;4.20;;;;;;;7.25;52.17;100965.84;106426;1256;60421;-83
2023/11/19 06:58:36;;;;;;;7.30;3.40;;;;;;;7.31;52.08;100960.33;106386;1256;60431;-81
2023/11/19 07:01:10;;;;;;;6.60;3.60;;;;;;;7.34;51.76;100955.17;106328;1256;73934;-83
2023/11/19 07:03:46;;;;;;;11.30;4.80;;;;;;;7.24;51.52;100957.77;106361;1258;68438;-81
2023/11/19 07:06:14;;;;;;;5.80;3.80;;;;;;;7.19;51.78;100946.97;106530;1254;72695;-81
2023/11/19 07:08:48;;;;;;;7.70;3.80;;;;;;;7.20;51.81;100940.80;106650;1260;60539;-83
2023/11/19 07:11:23;;;;;;;6.40;3.70;;;;;;;7.14;51.79;100933.45;106392;1255;60568;-83
2023/11/19 07:13:57;;;;;;;6.50;4.20;;;;;;;7.05;52.28;100928.94;106243;1260;72030;-84
2023/11/19 07:16:24;;;;;;;9.10;3.80;;;;;;;6.94;52.53;100927.93;106395;1257;66325;-84
2023/11/19 07:18:59;;;;;;;6.60;3.30;;;;;;;7.00;52.97;100926.29;106348;1257;71403;-81
2023/11/19 07:21:33;;;;;;;6.50;3.20;;;;;;;7.04;52.74;100919.27;106392;1253;60501;-83
2023/11/19 07:24:07;;;;;;;5.40;3.40;;;;;;;7.11;52.12;100918.56;106376;1257;60576;-82
2023/11/19 07:26:43;;;;;;;6.40;3.90;;;;;;;7.20;52.02;100917.41;106540;1255;73845;-82
2023/11/19 07:29:17;;;;;;;5.90;3.50;;;;;;;7.19;51.25;100920.55;106594;1260;68453;-81
2023/11/19 07:32:02;;;;;;;7.00;4.10;;;;;;;7.17;51.31;100912.42;106431;1257;71697;-81
2023/11/19 07:34:36;;;;;;;8.10;3.60;;;;;;;7.16;51.40;100911.53;106390;1253;60747;-81
2023/11/19 07:37:10;;;;;;;7.70;4.10;;;;;;;7.34;51.16;100902.65;106435;1255;60553;-83
2023/11/19 07:39:43;;;;;;;4.80;3.50;;;;;;;7.37;51.39;100900.80;106099;1261;72657;-83
2023/11/19 07:42:17;;;;;;;8.20;4.50;;;;;;;7.42;50.66;100900.16;106216;1267;69139;-81
2023/11/19 07:44:51;;;;;;;6.70;3.50;;;;;;;7.19;50.74;100896.70;106266;1260;72644;-84
2023/11/19 07:47:25;;;;;;;6.00;3.90;;;;;;;7.28;50.80;100893.46;106266;1259;60438;-83
2023/11/19 07:49:58;;;;;;;7.10;4.00;;;;;;;7.34;50.26;100889.10;106466;1258;60248;-81
2023/11/19 07:52:34;;;;;;;7.00;4.40;;;;;;;7.33;50.67;100892.63;106154;1260;72631;-81
2023/11/19 07:55:08;;;;;;;17.90;8.20;;;;;;;7.36;51.14;100902.41;106333;1260;68983;-81
2023/11/19 07:57:42;;;;;;;7.80;4.60;;;;;;;7.49;50.71;100910.61;106151;1257;72708;-82
2023/11/19 08:00:16;;;;;;;6.50;4.10;;;;;;;7.44;50.49;100909.27;106154;1257;60517;-84
2023/11/19 08:02:50;;;;;;;6.60;3.90;;;;;;;7.49;50.06;100903.05;106231;1256;60339;-84
2023/11/19 08:05:27;;;;;;;7.30;4.10;;;;;;;7.45;50.24;100902.01;106712;1260;72411;-82
2023/11/19 08:08:01;;;;;;;8.90;4.60;;;;;;;7.59;50.29;100906.91;106279;1254;68852;-80
2023/11/19 08:10:35;;;;;;;8.80;4.40;;;;;;;7.67;50.04;100914.87;106311;1259;71391;-82
2023/11/19 08:13:09;;;;;;;4.90;3.40;;;;;;;7.85;49.48;100915.45;106414;1260;60299;-82
2023/11/19 08:15:42;;;;;;;6.40;3.70;;;;;;;7.87;49.03;100910.58;106301;1257;60393;-83
2023/11/19 08:18:18;;;;;;;6.80;3.90;;;;;;;7.95;49.18;100908.79;106363;1255;72577;-81
2023/11/19 08:20:53;;;;;;;6.70;4.20;;;;;;;7.96;49.21;100913.38;106330;1260;67297;-82
2023/11/19 08:23:28;;;;;;;10.40;5.40;;;;;;;7.95;49.43;100914.52;106267;1255;72652;-81
2023/11/19 08:26:02;;;;;;;5.90;4.10;;;;;;;7.94;49.32;100921.04;106644;1259;60453;-82
2023/11/19 08:28:37;;;;;;;7.10;4.60;;;;;;;7.95;48.75;100917.95;106488;1264;60274;-83
2023/11/19 08:31:11;;;;;;;6.00;3.80;;;;;;;7.90;48.59;100926.26;106296;1262;74209;-80
2023/11/19 08:33:44;;;;;;;6.70;4.50;;;;;;;7.84;48.94;100932.98;106374;1259;67151;-81
2023/11/19 08:36:18;;;;;;;6.60;4.50;;;;;;;7.76;48.86;100937.20;106322;1257;71457;-82
2023/11/19 08:38:52;;;;;;;7.40;4.30;;;;;;;7.71;49.04;100929.29;106489;1251;60897;-81
2023/11/19 08:41:27;;;;;;;10.10;4.90;;;;;;;7.64;49.33;100925.09;106566;1257;60532;-80
2023/11/19 08:44:00;;;;;;;9.60;4.60;;;;;;;7.70;49.29;100910.11;109359;1254;71636;-81
2023/11/19 08:46:41;;;;;;;8.50;4.70;;;;;;;7.63;49.25;100907.90;109302;1254;67219;-83
2023/11/19 08:49:46;;;;;;;7.40;4.00;;;;;;;7.77;49.33;100905.86;106976;1257;71485;-83
2023/11/19 08:52:42;;;;;;;7.80;5.10;;;;;;;7.90;48.89;100902.03;109286;1254;59273;-81
2023/11/19 08:55:22;;;;;;;8.60;5.30;;;;;;;7.95;48.71;100893.01;109105;1253;60087;-83
2023/11/19 08:58:02;;;;;;;8.00;4.80;;;;;;;7.92;48.53;100883.50;106884;1256;72687;-81
2023/11/19 09:00:42;;;;;;;8.60;4.40;;;;;;;7.87;49.13;100882.14;106482;1254;67441;-83
2023/11/19 09:03:21;;;;;;;5.50;4.00;;;;;;;8.02;48.89;100883.42;106480;1254;71456;-81
2023/11/19 09:05:56;;;;;;;9.00;4.60;;;;;;;7.90;48.75;100885.00;106427;1257;60388;-83
2023/11/19 09:08:30;;;;;;;6.50;4.00;;;;;;;7.67;49.50;100882.44;106489;1254;60329;-82
2023/11/19 09:11:08;;;;;;;5.90;4.00;;;;;;;7.68;49.51;100867.98;106413;1252;72863;-82
2023/11/19 09:13:42;;;;;;;8.10;4.70;;;;;;;7.67;50.36;100858.89;106357;1257;68389;-82
2023/11/19 09:16:16;;;;;;;7.80;4.80;;;;;;;7.78;50.07;100856.81;106752;1257;72640;-82
2023/11/19 09:18:50;;;;;;;16.10;7.30;;;;;;;7.89;49.77;100852.06;106406;1254;60615;-81
2023/11/19 09:21:26;;;;;;;12.90;6.40;;;;;;;7.92;49.96;100848.02;106517;1257;60297;-83
2023/11/19 09:24:00;;;;;;;8.90;5.00;;;;;;;8.04;49.73;100846.38;106518;1254;73862;-82
2023/11/19 09:26:35;;;;;;;9.30;4.70;;;;;;;7.92;49.93;100846.00;106633;1254;68396;-80
2023/11/19 09:29:10;;;;;;;8.60;4.60;;;;;;;7.85;50.76;100847.87;106464;1254;72884;-81
2023/11/19 09:31:43;;;;;;;11.40;6.00;;;;;;;7.96;50.94;100843.38;106636;1254;60604;-83
2023/11/19 09:34:17;;;;;;;9.80;5.10;;;;;;;8.05;49.85;100835.61;106530;1255;60446;-81
2023/11/19 09:36:51;;;;;;;8.30;5.10;;;;;;;8.01;49.83;100830.50;106453;1254;73039;-81
2023/11/19 09:39:25;;;;;;;7.70;5.30;;;;;;;7.95;50.28;100825.47;106561;1251;67296;-83
2023/11/19 09:41:59;;;;;;;8.40;4.60;;;;;;;7.95;50.15;100826.29;106429;1254;71419;-80
2023/11/19 09:44:27;;;;;;;6.90;4.30;;;;;;;7.98;50.23;100826.94;106595;1256;60530;-80
2023/11/19 09:46:55;;;;;;;8.40;5.10;;;;;;;7.96;50.19;100828.25;106400;1255;60437;-83
2023/11/19 09:49:23;;;;;;;8.00;4.30;;;;;;;7.89;50.16;100827.14;106427;1257;73839;-81
2023/11/19 09:51:54;;;;;;;9.10;5.70;;;;;;;7.91;50.32;100821.27;106305;1254;68584;-84
2023/11/19 09:54:21;;;;;;;12.80;6.50;;;;;;;7.90;50.26;100820.02;106464;1258;71459;-80
2023/11/19 09:56:49;;;;;;;8.70;5.10;;;;;;;7.91;50.37;100813.16;106490;1254;60537;-81
2023/11/19 09:59:18;;;;;;;10.10;6.00;;;;;;;7.88;50.69;100819.11;106376;1254;60496;-83
2023/11/19 10:01:46;;;;;;;8.30;5.40;;;;;;;7.93;51.14;100821.48;106472;1254;72470;-85
2023/11/19 10:04:15;;;;;;;11.50;6.00;;;;;;;7.95;51.72;100811.75;106505;1259;67580;-83
2023/11/19 10:06:43;;;;;;;7.70;5.50;;;;;;;8.04;52.40;100808.05;106376;1254;71494;-83
2023/11/19 10:09:15;;;;;;;9.60;5.90;;;;;;;8.09;52.28;100808.77;106296;1254;60530;-83
2023/11/19 10:11:47;;;;;;;10.80;5.90;;;;;;;8.07;52.25;100809.89;106419;1254;60273;-81
2023/11/19 10:14:23;;;;;;;10.40;6.40;;;;;;;8.04;52.26;100808.77;106308;1253;73840;-81
2023/11/19 10:16:51;;;;;;;9.30;6.00;;;;;;;8.02;52.67;100808.02;106426;1256;67534;-81
2023/11/19 10:19:22;;;;;;;9.80;6.40;;;;;;;8.05;53.09;100796.36;106422;1254;72775;-83
2023/11/19 10:21:52;;;;;;;7.20;4.90;;;;;;;7.90;53.51;100790.52;106517;1254;60875;-83
2023/11/19 10:24:33;;;;;;;9.70;5.50;;;;;;;8.02;53.46;100786.31;106460;1254;60533;-81
2023/11/19 10:27:08;;;;;;;7.70;5.50;;;;;;;8.05;53.56;100785.49;106420;1252;74311;-81
2023/11/19 10:29:45;;;;;;;9.60;5.60;;;;;;;7.96;54.01;100779.92;106619;1254;68451;-81
2023/11/19 10:32:14;;;;;;;8.70;5.10;;;;;;;7.96;54.36;100781.61;106633;1254;72715;-83
2023/11/19 10:35:07;;;;;;;9.20;5.10;;;;;;;7.76;53.67;100774.14;106433;1257;60414;-83
2023/11/19 10:37:37;;;;;;;10.60;5.80;;;;;;;7.68;54.09;100768.70;106326;1252;60524;-81
2023/11/19 10:40:05;;;;;;;9.10;5.80;;;;;;;7.83;53.56;100768.02;106749;1254;76881;-81
2023/11/19 10:42:33;;;;;;;8.50;5.40;;;;;;;7.50;54.47;100770.86;106631;1256;68433;-83
2023/11/19 10:45:01;;;;;;;9.00;5.70;;;;;;;7.74;54.50;100771.23;106378;1257;71410;-83
2023/11/19 10:47:31;;;;;;;9.20;5.70;;;;;;;7.83;54.02;100769.70;106502;1256;60623;-83
2023/11/19 10:50:03;;;;;;;10.70;6.50;;;;;;;7.82;54.28;100771.60;106564;1253;60341;-81
2023/11/19 10:52:35;;;;;;;7.80;5.30;;;;;;;7.88;54.41;100773.09;106803;1254;72366;-83
2023/11/19 10:55:08;;;;;;;8.80;5.70;;;;;;;7.87;54.47;100777.31;106517;1254;68398;-81
2023/11/19 10:57:40;;;;;;;8.00;5.90;;;;;;;7.86;54.20;100772.52;106582;1254;72670;-81
2023/11/19 11:00:14;;;;;;;8.60;5.70;;;;;;;7.83;54.64;100770.40;106400;1254;60813;-81
2023/11/19 11:02:49;;;;;;;8.60;5.50;;;;;;;7.81;54.93;100764.23;106880;1253;60325;-84
2023/11/19 11:05:19;;;;;;;10.00;5.20;;;;;;;7.80;54.75;100767.65;106396;1254;71738;-87
2023/11/19 11:07:54;;;;;;;10.00;6.60;;;;;;;7.70;54.88;100770.14;106355;1253;68217;-81
2023/11/19 11:10:25;;;;;;;8.40;4.80;;;;;;;7.81;54.71;100762.67;106461;1254;71640;-81
2023/11/19 11:12:59;;;;;;;8.00;4.80;;;;;;;7.68;54.89;100762.34;106245;1254;60520;-87
2023/11/19 11:15:31;;;;;;;9.10;5.30;;;;;;;7.70;54.61;100761.92;106606;1257;59733;-80
2023/11/19 11:18:05;;;;;;;12.20;7.30;;;;;;;7.74;55.03;100756.59;106359;1254;73935;-86
2023/11/19 11:20:38;;;;;;;11.80;6.50;;;;;;;7.85;54.61;100762.16;106580;1257;67688;-82
2023/11/19 11:23:16;;;;;;;10.50;6.00;;;;;;;7.85;54.02;100766.41;106608;1254;72666;-81
2023/11/19 11:26:09;;;;;;;7.20;4.50;;;;;;;7.87;53.45;100758.05;106614;1257;60376;-81
2023/11/19 11:28:45;;;;;;;;;;;;;;;7.96;52.96;100754.78;106392;1257;60671;-81
2023/11/19 11:31:37;;;;;;;15.80;6.60;;;;;;;8.06;52.55;100752.13;106514;1256;73812;-82
2023/11/19 11:34:25;;;;;;;9.30;5.80;;;;;;;7.99;52.45;100745.30;106546;1257;67271;-86
2023/11/19 11:37:25;;;;;;;11.90;6.30;;;;;;;8.05;52.18;100740.23;106430;1254;72672;-86
2023/11/19 11:39:52;;;;;;;9.60;5.20;;;;;;;8.10;52.18;100728.86;106301;1260;60536;-81
2023/11/19 11:42:30;;;;;;;11.00;5.70;;;;;;;8.12;52.09;100719.30;106402;1253;60519;-81
2023/11/19 11:44:59;;;;;;;10.60;6.00;;;;;;;8.15;52.57;100713.52;106563;1254;73860;-86
2023/11/19 11:47:46;;;;;;;10.50;5.80;;;;;;;8.23;52.55;100713.59;106798;1257;68614;-85
2023/11/19 11:50:18;;;;;;;9.90;5.80;;;;;;;8.15;52.83;100714.34;106542;1254;72686;-86
2023/11/19 11:52:55;;;;;;;12.90;6.50;;;;;;;8.04;53.37;100716.50;106569;1254;59600;-86
2023/11/19 11:55:54;;;;;;;8.80;5.20;;;;;;;8.09;53.43;100721.08;106468;1252;60474;-86
2023/11/19 11:58:26;;;;;;;9.60;5.30;;;;;;;8.09;53.23;100720.97;106590;1254;72578;-86
2023/11/19 12:00:53;;;;;;;10.30;5.40;;;;;;;8.12;52.75;100723.17;106400;1253;67611;-86
2023/11/19 12:03:22;;;;;;;9.30;6.00;;;;;;;8.10;52.52;100726.68;106414;1257;71710;-85
2023/11/19 12:05:55;;;;;;;11.40;6.20;;;;;;;7.97;52.85;100717.91;106480;1256;60482;-82
2023/11/19 12:08:29;;;;;;;13.50;6.20;;;;;;;7.83;52.80;100717.79;106497;1254;61025;-82
2023/11/19 12:11:03;;;;;;;9.10;5.20;;;;;;;7.85;52.69;100709.06;106455;1253;75362;-82
2023/11/19 12:13:47;;;;;;;11.40;6.30;;;;;;;7.86;52.54;100705.90;106645;1254;69611;-86
2023/11/19 12:16:21;;;;;;;10.00;4.70;;;;;;;7.96;52.29;100701.08;106511;1257;74640;-86
2023/11/19 12:18:53;;;;;;;6.80;4.70;;;;;;;7.96;52.70;100693.39;106387;1254;61477;-82
2023/11/19 12:21:29;;;;;;;;;;;;;;;7.84;52.89;100690.42;106541;1256;60489;-85
2023/11/19 12:24:07;;;;;;;9.00;5.40;;;;;;;7.85;52.65;100686.78;106617;1254;74121;-82
2023/11/19 12:26:40;;;;;;;8.00;4.70;;;;;;;7.80;53.06;100682.88;106370;1258;69265;-82
2023/11/19 12:29:12;;;;;;;7.80;4.50;;;;;;;7.73;53.02;100684.16;106445;1253;74644;-85
2023/11/19 12:31:45;;;;;;;10.40;4.60;;;;;;;7.68;52.54;100680.95;106555;1254;61513;-82
2023/11/19 12:34:23;;;;;;;8.20;4.90;;;;;;;7.62;52.51;100683.86;106481;1252;60597;-86
2023/11/19 12:36:53;;;;;;;8.00;4.80;;;;;;;7.68;52.53;100682.30;106466;1255;76189;-83
2023/11/19 12:39:25;;;;;;;7.80;4.20;;;;;;;7.71;52.44;100679.80;106664;1252;69784;-86
2023/11/19 12:42:00;;;;;;;8.40;5.70;;;;;;;7.80;52.31;100685.10;106631;1253;72454;-86
2023/11/19 12:44:31;;;;;;;13.30;6.90;;;;;;;7.87;52.63;100689.91;106506;1254;60645;-86
2023/11/19 12:47:11;;;;;;;12.60;6.80;;;;;;;7.95;52.48;100690.92;106491;1254;60549;-86
2023/11/19 12:49:39;;;;;;;9.60;5.30;;;;;;;7.92;51.95;100683.23;106422;1255;73829;-86
2023/11/19 12:52:17;;;;;;;10.40;6.00;;;;;;;7.95;51.76;100676.89;106435;1254;67276;-86
2023/11/19 12:54:45;;;;;;;21.90;10.10;;;;;;;7.93;51.34;100674.11;106668;1252;72664;-85
2023/11/19 12:57:20;;;;;;;21.60;10.10;;;;;;;7.91;51.24;100673.91;106594;1254;60542;-86
2023/11/19 12:59:56;;;;;;;37.70;15.70;;;;;;;7.89;51.53;100676.50;106347;1256;60919;-82
2023/11/19 13:02:48;;;;;;;19.50;9.20;;;;;;;8.00;51.59;100676.13;106298;1259;73782;-81
2023/11/19 13:05:32;;;;;;;28.80;13.60;;;;;;;8.08;51.45;100680.61;106762;1256;67384;-81
2023/11/19 13:08:08;;;;;;;18.80;9.40;;;;;;;8.07;51.12;100678.05;106382;1254;72572;-86
2023/11/19 13:11:06;;;;;;;16.40;8.70;;;;;;;8.00;51.25;100677.59;106606;1253;60627;-82
2023/11/19 13:13:59;;;;;;;12.30;6.30;;;;;;;8.03;51.36;100677.36;106326;1253;62132;-86
2023/11/19 13:16:27;;;;;;;10.90;5.50;;;;;;;7.99;50.75;100680.54;106534;1252;73847;-83
2023/11/19 13:18:56;;;;;;;10.20;5.50;;;;;;;7.90;50.76;100674.39;106311;1256;68896;-82
2023/11/19 13:21:25;;;;;;;11.30;5.70;;;;;;;7.83;50.90;100674.27;106361;1253;73040;-82
2023/11/19 13:23:52;;;;;;;9.20;5.90;;;;;;;7.94;50.59;100667.90;106397;1256;59662;-82
2023/11/19 13:26:20;;;;;;;13.50;6.90;;;;;;;8.02;50.32;100662.65;106652;1253;60547;-86
2023/11/19 13:28:48;;;;;;;16.20;8.10;;;;;;;7.95;50.67;100658.88;106775;1253;73837;-83
2023/11/19 13:31:16;;;;;;;28.70;14.10;;;;;;;7.86;51.22;100657.96;106534;1254;67651;-87
2023/11/19 13:33:44;;;;;;;46.00;19.10;;;;;;;7.94;50.95;100655.16;106345;1254;74970;-82
2023/11/19 13:36:12;;;;;;;53.30;25.00;;;;;;;8.03;50.41;100647.05;106448;1254;60552;-83
2023/11/19 13:38:47;;;;;;;31.50;17.30;;;;;;;7.98;50.39;100644.21;106310;1254;60499;-83
2023/11/19 13:41:15;;;;;;;19.40;9.30;;;;;;;8.01;50.27;100645.23;106483;1254;75857;-86
2023/11/19 17:44:03;;;;;;;21.00;10.50;;;;;;;6.90;57.41;100482.13;106925;1251;68422;-85
2023/11/19 17:46:38;;;;;;;24.60;11.40;;;;;;;6.93;57.45;100475.34;106644;1254;73153;-84
2023/11/19 17:49:19;;;;;;;20.60;10.50;;;;;;;6.93;57.65;100470.58;106654;1252;61207;-84
2023/11/19 17:51:55;;;;;;;25.40;11.30;;;;;;;6.85;57.91;100464.29;106513;1254;60861;-84
2023/11/19 17:54:30;;;;;;;32.00;12.90;;;;;;;6.88;57.98;100459.01;106830;1257;75974;-83
2023/11/19 17:57:05;;;;;;;25.90;11.90;;;;;;;6.92;58.09;100454.36;106552;1254;68488;-84
2023/11/19 17:59:42;;;;;;;15.20;7.90;;;;;;;6.87;58.19;100449.81;106370;1256;71372;-83
2023/11/19 18:02:14;;;;;;;16.80;8.20;;;;;;;6.97;58.08;100439.58;106639;1254;62809;-83
2023/11/19 18:04:49;;;;;;;;;;;;;;;6.95;57.86;100438.92;106689;1254;62181;-84
2023/11/19 18:07:23;;;;;;;11.90;6.70;;;;;;;7.00;57.82;100432.08;106475;1253;75349;-83
2023/11/19 18:09:56;;;;;;;17.80;8.10;;;;;;;7.01;57.28;100435.02;106608;1256;69382;-84
2023/11/19 18:12:30;;;;;;;33.30;14.00;;;;;;;6.93;57.67;100430.16;106721;1253;74940;-83
2023/11/19 18:15:05;;;;;;;20.30;8.70;;;;;;;6.90;57.91;100430.61;106864;1252;60440;-84
2023/11/19 18:17:44;;;;;;;16.50;7.60;;;;;;;6.92;57.99;100422.21;106571;1254;62342;-86
2023/11/19 18:20:15;;;;;;;9.00;5.60;;;;;;;6.98;57.89;100418.85;106627;1252;74703;-84
2023/11/19 18:22:54;;;;;;;13.10;6.10;;;;;;;7.05;57.64;100415.06;106568;1254;71182;-84
2023/11/19 18:25:22;;;;;;;16.90;7.80;;;;;;;7.11;57.42;100410.61;106489;1252;73740;-84
2023/11/19 18:27:57;;;;;;;11.90;6.70;;;;;;;7.01;57.76;100404.86;106635;1254;62944;-84
2023/11/19 18:30:25;;;;;;;18.90;7.50;;;;;;;7.00;57.65;100403.98;106668;1254;62213;-83
2023/11/19 18:33:00;;;;;;;11.90;6.50;;;;;;;6.79;58.01;100408.44;106937;1256;74855;-83
2023/11/19 18:35:28;;;;;;;14.80;6.60;;;;;;;6.82;57.60;100400.54;106805;1254;68002;-83
2023/11/19 18:38:04;;;;;;;13.90;6.90;;;;;;;6.73;58.38;100393.55;107987;1253;73610;-84
2023/11/19 18:40:31;;;;;;;11.50;6.60;;;;;;;6.67;59.11;100390.05;109277;1254;60159;-83
2023/11/19 18:43:07;;;;;;;9.20;5.40;;;;;;;6.67;59.25;100391.09;109303;1252;61987;-83
2023/11/19 18:45:34;;;;;;;11.50;5.80;;;;;;;6.60;59.42;100388.61;106700;1252;75818;-82
2023/11/19 18:48:10;;;;;;;13.70;6.80;;;;;;;6.43;59.94;100388.58;106483;1256;70333;-83
2023/11/19 18:50:38;;;;;;;15.60;6.40;;;;;;;6.39;60.45;100388.17;106625;1252;74405;-83
2023/11/19 18:53:10;;;;;;;12.30;6.30;;;;;;;6.43;60.55;100390.10;106508;1254;61859;-83
2023/11/19 18:55:39;;;;;;;11.90;6.20;;;;;;;6.49;60.28;100384.05;106439;1254;62179;-84
2023/11/19 18:58:13;;;;;;;12.40;6.40;;;;;;;6.51;60.22;100383.91;106478;1256;75655;-83
2023/11/19 19:00:42;;;;;;;15.10;6.90;;;;;;;6.64;60.10;100385.80;106473;1254;70728;-83
2023/11/19 19:03:13;;;;;;;12.00;6.20;;;;;;;6.65;60.08;100389.33;106912;1256;74623;-83
2023/11/19 19:05:43;;;;;;;10.80;6.00;;;;;;;6.67;59.70;100384.74;106459;1254;61427;-84
2023/11/19 19:08:14;;;;;;;14.00;7.20;;;;;;;6.75;59.27;100383.20;106702;1253;61989;-84
2023/11/19 19:10:44;;;;;;;11.90;6.90;;;;;;;6.64;59.34;100379.00;106452;1256;75797;-84
2023/11/19 19:13:14;;;;;;;13.40;6.60;;;;;;;6.69;59.35;100367.65;106423;1254;70409;-84
2023/11/19 19:15:44;;;;;;;12.20;6.00;;;;;;;6.70;59.41;100367.17;106878;1254;74652;-85
2023/11/19 19:18:25;;;;;;;9.80;5.20;;;;;;;6.71;59.55;100360.88;106578;1254;61968;-85
2023/11/19 19:20:59;;;;;;;10.50;5.70;;;;;;;6.74;59.27;100362.82;106577;1254;61219;-85
2023/11/19 19:23:29;;;;;;;16.50;7.60;;;;;;;6.73;59.38;100362.74;106493;1254;73766;-84
2023/11/19 19:26:06;;;;;;;12.80;6.50;;;;;;;6.77;59.28;100361.91;106426;1252;71136;-84
2023/11/19 19:28:37;;;;;;;14.70;7.20;;;;;;;6.85;58.82;100364.13;106720;1256;74810;-85
2023/11/19 19:31:07;;;;;;;13.50;6.90;;;;;;;6.81;59.10;100361.97;106471;1253;60527;-84
2023/11/19 19:33:42;;;;;;;9.50;6.30;;;;;;;6.76;59.27;100358.55;106427;1254;60908;-84
2023/11/19 19:36:16;;;;;;;14.20;6.70;;;;;;;6.81;59.34;100356.85;106438;1254;72926;-84
2023/11/19 19:38:43;;;;;;;11.00;6.10;;;;;;;6.85;59.29;100358.35;106433;1251;68123;-84
2023/11/19 19:41:18;;;;;;;14.80;6.50;;;;;;;6.83;59.15;100356.82;106924;1254;73577;-84
2023/11/19 19:43:53;;;;;;;13.70;7.20;;;;;;;6.75;59.51;100350.48;106442;1257;60514;-84
2023/11/19 19:46:22;;;;;;;14.90;7.70;;;;;;;6.71;59.51;100351.98;106582;1254;60367;-84
2023/11/19 19:48:53;;;;;;;14.50;7.90;;;;;;;6.61;59.89;100349.75;106705;1254;76425;-84
2023/11/19 19:51:23;;;;;;;14.80;7.30;;;;;;;6.61;59.92;100343.84;106692;1256;67261;-84
2023/11/19 19:53:51;;;;;;;12.40;6.60;;;;;;;6.62;59.84;100341.40;106571;1251;73579;-84
2023/11/19 19:56:18;;;;;;;11.00;6.00;;;;;;;6.60;60.01;100338.98;106404;1254;62255;-84
2023/11/19 19:58:46;;;;;;;17.40;8.60;;;;;;;6.69;59.82;100340.83;106601;1254;61094;-84